sensor_id;sensor_type;location;lat;lon;timestamp;P1;durP1;ratioP1;P2;durP2;ratioP2
40611;SDS011;26317;44.894;20.286;2023-04-12T00:02:17;5.70;;;4.40;;
40611;SDS011;26317;44.894;20.286;2023-04-12T00:04:55;7.05;;;4.82;;
40611;SDS011;26317;44.894;20.286;2023-04-12T00:07:33;4.90;;;3.80;;
40611;SDS011;26317;44.894;20.286;2023-04-12T00:10:07;6.43;;;4.15;;
40611;SDS011;26317;44.894;20.286;2023-04-12T00:12:56;5.00;;;3.80;;
40611;SDS011;26317;44.894;20.286;2023-04-12T00:15:37;4.57;;;4.18;;
40611;SDS011;26317;44.894;20.286;2023-04-12T00:18:10;6.70;;;4.38;;
40611;SDS011;26317;44.894;20.286;2023-04-12T00:20:48;4.90;;;4.38;;
40611;SDS011;26317;44.894;20.286;2023-04-12T00:23:26;6.03;;;4.10;;
40611;SDS011;26317;44.894;20.286;2023-04-12T00:26:03;6.40;;;4.07;;
40611;SDS011;26317;44.894;20.286;2023-04-12T00:28:37;4.47;;;3.90;;
40611;SDS011;26317;44.894;20.286;2023-04-12T00:31:20;5.07;;;4.40;;
40611;SDS011;26317;44.894;20.286;2023-04-12T00:33:58;3.90;;;3.50;;
40611;SDS011;26317;44.894;20.286;2023-04-12T00:36:48;6.43;;;4.65;;
40611;SDS011;26317;44.894;20.286;2023-04-12T00:39:33;5.35;;;4.65;;
40611;SDS011;26317;44.894;20.286;2023-04-12T00:42:26;5.97;;;4.43;;
40611;SDS011;26317;44.894;20.286;2023-04-12T00:45:06;6.15;;;4.40;;
40611;SDS011;26317;44.894;20.286;2023-04-12T00:47:39;5.38;;;4.47;;
40611;SDS011;26317;44.894;20.286;2023-04-12T00:50:23;4.32;;;3.60;;
40611;SDS011;26317;44.894;20.286;2023-04-12T00:53:04;7.40;;;4.45;;
40611;SDS011;26317;44.894;20.286;2023-04-12T00:55:38;5.25;;;3.92;;
40611;SDS011;26317;44.894;20.286;2023-04-12T00:58:24;4.30;;;3.90;;
40611;SDS011;26317;44.894;20.286;2023-04-12T01:01:01;4.30;;;3.63;;
40611;SDS011;26317;44.894;20.286;2023-04-12T01:03:44;4.72;;;4.13;;
40611;SDS011;26317;44.894;20.286;2023-04-12T01:06:23;7.20;;;4.15;;
40611;SDS011;26317;44.894;20.286;2023-04-12T01:09:14;5.63;;;3.90;;
40611;SDS011;26317;44.894;20.286;2023-04-12T01:12:05;6.80;;;4.28;;
40611;SDS011;26317;44.894;20.286;2023-04-12T01:14:53;4.03;;;3.20;;
40611;SDS011;26317;44.894;20.286;2023-04-12T01:17:37;4.65;;;3.75;;
40611;SDS011;26317;44.894;20.286;2023-04-12T01:20:18;4.47;;;3.70;;
40611;SDS011;26317;44.894;20.286;2023-04-12T01:26:13;4.85;;;3.60;;
40611;SDS011;26317;44.894;20.286;2023-04-12T01:29:12;4.03;;;3.47;;
40611;SDS011;26317;44.894;20.286;2023-04-12T01:31:51;5.03;;;2.90;;
40611;SDS011;26317;44.894;20.286;2023-04-12T01:34:32;3.90;;;2.90;;
40611;SDS011;26317;44.894;20.286;2023-04-12T01:37:16;3.97;;;2.40;;
40611;SDS011;26317;44.894;20.286;2023-04-12T01:39:54;2.47;;;2.22;;
40611;SDS011;26317;44.894;20.286;2023-04-12T01:42:27;3.25;;;2.55;;
40611;SDS011;26317;44.894;20.286;2023-04-12T01:45:10;2.30;;;2.00;;
40611;SDS011;26317;44.894;20.286;2023-04-12T01:47:46;6.90;;;2.53;;
40611;SDS011;26317;44.894;20.286;2023-04-12T01:50:24;3.45;;;2.28;;
40611;SDS011;26317;44.894;20.286;2023-04-12T01:53:05;3.33;;;2.47;;
40611;SDS011;26317;44.894;20.286;2023-04-12T01:55:40;4.45;;;2.85;;
40611;SDS011;26317;44.894;20.286;2023-04-12T01:58:20;3.28;;;2.42;;
40611;SDS011;26317;44.894;20.286;2023-04-12T02:01:02;2.83;;;2.50;;
40611;SDS011;26317;44.894;20.286;2023-04-12T02:03:46;4.35;;;2.00;;
40611;SDS011;26317;44.894;20.286;2023-04-12T02:06:34;3.55;;;2.28;;
40611;SDS011;26317;44.894;20.286;2023-04-12T02:09:09;3.60;;;2.38;;
40611;SDS011;26317;44.894;20.286;2023-04-12T02:11:46;2.40;;;1.92;;
40611;SDS011;26317;44.894;20.286;2023-04-12T02:14:20;5.72;;;1.90;;
40611;SDS011;26317;44.894;20.286;2023-04-12T02:16:59;6.15;;;1.92;;
40611;SDS011;26317;44.894;20.286;2023-04-12T02:19:33;6.35;;;2.13;;
40611;SDS011;26317;44.894;20.286;2023-04-12T02:22:09;4.03;;;1.83;;
40611;SDS011;26317;44.894;20.286;2023-04-12T02:24:39;2.63;;;1.88;;
40611;SDS011;26317;44.894;20.286;2023-04-12T02:27:19;2.40;;;1.58;;
40611;SDS011;26317;44.894;20.286;2023-04-12T02:29:57;6.18;;;1.92;;
40611;SDS011;26317;44.894;20.286;2023-04-12T02:32:35;2.70;;;1.50;;
40611;SDS011;26317;44.894;20.286;2023-04-12T02:35:25;5.57;;;2.22;;
40611;SDS011;26317;44.894;20.286;2023-04-12T02:38:19;2.72;;;1.52;;
40611;SDS011;26317;44.894;20.286;2023-04-12T02:40:52;2.20;;;1.92;;
40611;SDS011;26317;44.894;20.286;2023-04-12T02:43:27;4.35;;;1.80;;
40611;SDS011;26317;44.894;20.286;2023-04-12T02:46:02;4.95;;;2.05;;
40611;SDS011;26317;44.894;20.286;2023-04-12T02:48:50;3.67;;;1.77;;
40611;SDS011;26317;44.894;20.286;2023-04-12T02:51:33;2.28;;;1.50;;
40611;SDS011;26317;44.894;20.286;2023-04-12T02:54:14;3.10;;;1.90;;
40611;SDS011;26317;44.894;20.286;2023-04-12T02:56:55;3.33;;;1.30;;
40611;SDS011;26317;44.894;20.286;2023-04-12T02:59:36;3.17;;;1.13;;
40611;SDS011;26317;44.894;20.286;2023-04-12T03:02:23;1.45;;;1.00;;
40611;SDS011;26317;44.894;20.286;2023-04-12T03:05:19;2.80;;;1.05;;
40611;SDS011;26317;44.894;20.286;2023-04-12T03:07:57;3.60;;;1.60;;
40611;SDS011;26317;44.894;20.286;2023-04-12T03:10:38;1.73;;;0.90;;
40611;SDS011;26317;44.894;20.286;2023-04-12T03:13:24;4.32;;;1.75;;
40611;SDS011;26317;44.894;20.286;2023-04-12T03:15:57;2.63;;;1.08;;
40611;SDS011;26317;44.894;20.286;2023-04-12T03:19:01;2.47;;;1.15;;
40611;SDS011;26317;44.894;20.286;2023-04-12T03:21:47;1.05;;;0.95;;
40611;SDS011;26317;44.894;20.286;2023-04-12T03:24:19;3.78;;;2.10;;
40611;SDS011;26317;44.894;20.286;2023-04-12T03:29:28;2.50;;;1.48;;
40611;SDS011;26317;44.894;20.286;2023-04-12T03:32:05;3.05;;;1.65;;
40611;SDS011;26317;44.894;20.286;2023-04-12T03:34:53;6.15;;;2.10;;
40611;SDS011;26317;44.894;20.286;2023-04-12T03:37:36;5.35;;;1.65;;
40611;SDS011;26317;44.894;20.286;2023-04-12T03:42:56;3.85;;;1.98;;
40611;SDS011;26317;44.894;20.286;2023-04-12T03:45:32;14.15;;;7.60;;
40611;SDS011;26317;44.894;20.286;2023-04-12T03:48:12;14.80;;;8.35;;
40611;SDS011;26317;44.894;20.286;2023-04-12T03:50:54;13.80;;;7.28;;
40611;SDS011;26317;44.894;20.286;2023-04-12T03:53:30;19.73;;;11.75;;
40611;SDS011;26317;44.894;20.286;2023-04-12T03:56:13;15.15;;;9.38;;
40611;SDS011;26317;44.894;20.286;2023-04-12T03:58:54;23.90;;;13.90;;
40611;SDS011;26317;44.894;20.286;2023-04-12T04:01:28;21.45;;;13.52;;
40611;SDS011;26317;44.894;20.286;2023-04-12T04:04:14;13.32;;;8.75;;
40611;SDS011;26317;44.894;20.286;2023-04-12T04:06:49;5.00;;;3.65;;
40611;SDS011;26317;44.894;20.286;2023-04-12T04:09:38;6.88;;;3.05;;
40611;SDS011;26317;44.894;20.286;2023-04-12T04:12:13;2.40;;;1.80;;
40611;SDS011;26317;44.894;20.286;2023-04-12T04:14:55;3.58;;;1.70;;
40611;SDS011;26317;44.894;20.286;2023-04-12T04:20:11;3.10;;;2.00;;
40611;SDS011;26317;44.894;20.286;2023-04-12T04:22:59;4.55;;;2.15;;
40611;SDS011;26317;44.894;20.286;2023-04-12T04:25:32;7.82;;;3.72;;
40611;SDS011;26317;44.894;20.286;2023-04-12T04:28:13;6.43;;;3.00;;
40611;SDS011;26317;44.894;20.286;2023-04-12T04:31:07;5.40;;;2.30;;
40611;SDS011;26317;44.894;20.286;2023-04-12T04:33:42;3.00;;;1.85;;
40611;SDS011;26317;44.894;20.286;2023-04-12T04:36:17;4.35;;;2.15;;
40611;SDS011;26317;44.894;20.286;2023-04-12T04:39:03;6.55;;;3.80;;
40611;SDS011;26317;44.894;20.286;2023-04-12T04:41:43;4.90;;;3.38;;
40611;SDS011;26317;44.894;20.286;2023-04-12T04:44:38;4.53;;;3.00;;
40611;SDS011;26317;44.894;20.286;2023-04-12T04:47:16;6.03;;;2.08;;
40611;SDS011;26317;44.894;20.286;2023-04-12T04:49:59;4.00;;;2.13;;
40611;SDS011;26317;44.894;20.286;2023-04-12T04:52:36;5.32;;;2.50;;
40611;SDS011;26317;44.894;20.286;2023-04-12T04:55:21;4.10;;;2.80;;
40611;SDS011;26317;44.894;20.286;2023-04-12T04:58:01;2.92;;;2.20;;
40611;SDS011;26317;44.894;20.286;2023-04-12T05:00:44;9.88;;;2.83;;
40611;SDS011;26317;44.894;20.286;2023-04-12T05:03:30;5.47;;;2.47;;
40611;SDS011;26317;44.894;20.286;2023-04-12T05:06:03;4.57;;;1.70;;
40611;SDS011;26317;44.894;20.286;2023-04-12T05:08:47;3.97;;;2.15;;
40611;SDS011;26317;44.894;20.286;2023-04-12T05:14:09;3.90;;;2.42;;
40611;SDS011;26317;44.894;20.286;2023-04-12T05:16:51;3.08;;;2.33;;
40611;SDS011;26317;44.894;20.286;2023-04-12T05:19:34;8.50;;;4.93;;
40611;SDS011;26317;44.894;20.286;2023-04-12T05:22:16;9.55;;;5.22;;
40611;SDS011;26317;44.894;20.286;2023-04-12T05:28:05;7.45;;;3.53;;
40611;SDS011;26317;44.894;20.286;2023-04-12T05:30:42;6.03;;;2.65;;
40611;SDS011;26317;44.894;20.286;2023-04-12T05:33:23;4.90;;;2.20;;
40611;SDS011;26317;44.894;20.286;2023-04-12T05:36:00;5.88;;;3.10;;
40611;SDS011;26317;44.894;20.286;2023-04-12T05:38:35;4.47;;;2.67;;
40611;SDS011;26317;44.894;20.286;2023-04-12T05:41:13;5.93;;;2.88;;
40611;SDS011;26317;44.894;20.286;2023-04-12T05:43:57;7.10;;;2.95;;
40611;SDS011;26317;44.894;20.286;2023-04-12T05:46:39;5.43;;;2.72;;
40611;SDS011;26317;44.894;20.286;2023-04-12T05:49:17;5.03;;;2.80;;
40611;SDS011;26317;44.894;20.286;2023-04-12T05:51:58;4.30;;;2.42;;
40611;SDS011;26317;44.894;20.286;2023-04-12T05:54:32;3.30;;;2.17;;
40611;SDS011;26317;44.894;20.286;2023-04-12T05:57:12;4.13;;;2.05;;
40611;SDS011;26317;44.894;20.286;2023-04-12T05:59:56;4.60;;;3.05;;
40611;SDS011;26317;44.894;20.286;2023-04-12T06:02:39;4.05;;;2.45;;
40611;SDS011;26317;44.894;20.286;2023-04-12T06:05:19;3.03;;;2.47;;
40611;SDS011;26317;44.894;20.286;2023-04-12T06:07:54;3.28;;;2.00;;
40611;SDS011;26317;44.894;20.286;2023-04-12T06:10:33;3.60;;;2.23;;
40611;SDS011;26317;44.894;20.286;2023-04-12T06:13:09;3.72;;;2.30;;
40611;SDS011;26317;44.894;20.286;2023-04-12T06:15:52;4.22;;;2.10;;
40611;SDS011;26317;44.894;20.286;2023-04-12T06:18:36;6.00;;;2.47;;
40611;SDS011;26317;44.894;20.286;2023-04-12T06:21:24;4.22;;;2.58;;
40611;SDS011;26317;44.894;20.286;2023-04-12T06:24:00;6.20;;;2.35;;
40611;SDS011;26317;44.894;20.286;2023-04-12T06:26:36;6.07;;;2.70;;
40611;SDS011;26317;44.894;20.286;2023-04-12T06:29:19;4.03;;;3.33;;
40611;SDS011;26317;44.894;20.286;2023-04-12T06:31:58;8.65;;;3.50;;
40611;SDS011;26317;44.894;20.286;2023-04-12T06:34:35;3.75;;;3.35;;
40611;SDS011;26317;44.894;20.286;2023-04-12T06:37:14;5.10;;;3.47;;
40611;SDS011;26317;44.894;20.286;2023-04-12T06:39:50;4.75;;;2.95;;
40611;SDS011;26317;44.894;20.286;2023-04-12T06:42:29;4.55;;;3.35;;
40611;SDS011;26317;44.894;20.286;2023-04-12T06:45:03;6.13;;;3.58;;
40611;SDS011;26317;44.894;20.286;2023-04-12T06:47:49;7.38;;;5.20;;
40611;SDS011;26317;44.894;20.286;2023-04-12T06:50:29;8.07;;;3.55;;
40611;SDS011;26317;44.894;20.286;2023-04-12T06:53:04;9.15;;;3.10;;
40611;SDS011;26317;44.894;20.286;2023-04-12T06:55:45;4.60;;;2.45;;
40611;SDS011;26317;44.894;20.286;2023-04-12T06:58:24;3.10;;;2.80;;
40611;SDS011;26317;44.894;20.286;2023-04-12T07:01:11;15.45;;;3.28;;
40611;SDS011;26317;44.894;20.286;2023-04-12T07:03:47;5.13;;;2.83;;
40611;SDS011;26317;44.894;20.286;2023-04-12T07:06:27;8.57;;;4.78;;
40611;SDS011;26317;44.894;20.286;2023-04-12T07:09:02;8.27;;;3.88;;
40611;SDS011;26317;44.894;20.286;2023-04-12T07:11:43;7.03;;;2.92;;
40611;SDS011;26317;44.894;20.286;2023-04-12T07:14:22;6.43;;;3.58;;
40611;SDS011;26317;44.894;20.286;2023-04-12T07:17:00;11.85;;;7.80;;
40611;SDS011;26317;44.894;20.286;2023-04-12T07:19:41;6.13;;;2.90;;
40611;SDS011;26317;44.894;20.286;2023-04-12T07:22:15;5.22;;;3.20;;
40611;SDS011;26317;44.894;20.286;2023-04-12T07:24:51;6.47;;;2.72;;
40611;SDS011;26317;44.894;20.286;2023-04-12T07:27:38;4.32;;;3.00;;
40611;SDS011;26317;44.894;20.286;2023-04-12T07:30:14;5.53;;;2.53;;
40611;SDS011;26317;44.894;20.286;2023-04-12T07:32:54;6.28;;;1.83;;
40611;SDS011;26317;44.894;20.286;2023-04-12T07:35:50;3.78;;;2.53;;
40611;SDS011;26317;44.894;20.286;2023-04-12T07:38:29;7.65;;;2.40;;
40611;SDS011;26317;44.894;20.286;2023-04-12T07:41:11;7.97;;;2.65;;
40611;SDS011;26317;44.894;20.286;2023-04-12T07:43:48;3.65;;;2.65;;
40611;SDS011;26317;44.894;20.286;2023-04-12T07:46:24;3.15;;;2.20;;
40611;SDS011;26317;44.894;20.286;2023-04-12T07:48:58;5.18;;;2.28;;
40611;SDS011;26317;44.894;20.286;2023-04-12T07:51:41;8.98;;;5.57;;
40611;SDS011;26317;44.894;20.286;2023-04-12T07:54:16;9.13;;;3.97;;
40611;SDS011;26317;44.894;20.286;2023-04-12T07:56:59;5.20;;;2.50;;
40611;SDS011;26317;44.894;20.286;2023-04-12T07:59:38;7.05;;;2.40;;
40611;SDS011;26317;44.894;20.286;2023-04-12T08:02:21;9.50;;;2.95;;
40611;SDS011;26317;44.894;20.286;2023-04-12T08:04:57;7.82;;;2.78;;
40611;SDS011;26317;44.894;20.286;2023-04-12T08:07:45;5.03;;;2.40;;
40611;SDS011;26317;44.894;20.286;2023-04-12T08:10:23;10.52;;;2.50;;
40611;SDS011;26317;44.894;20.286;2023-04-12T08:13:07;6.13;;;3.38;;
40611;SDS011;26317;44.894;20.286;2023-04-12T08:15:45;7.82;;;2.25;;
40611;SDS011;26317;44.894;20.286;2023-04-12T08:18:24;5.20;;;2.40;;
40611;SDS011;26317;44.894;20.286;2023-04-12T08:21:01;7.90;;;2.70;;
40611;SDS011;26317;44.894;20.286;2023-04-12T08:23:41;5.95;;;3.10;;
40611;SDS011;26317;44.894;20.286;2023-04-12T08:26:14;8.65;;;2.50;;
40611;SDS011;26317;44.894;20.286;2023-04-12T08:28:52;8.10;;;2.53;;
40611;SDS011;26317;44.894;20.286;2023-04-12T08:31:32;6.18;;;2.53;;
40611;SDS011;26317;44.894;20.286;2023-04-12T08:34:10;4.45;;;2.83;;
40611;SDS011;26317;44.894;20.286;2023-04-12T08:37:01;11.25;;;3.22;;
40611;SDS011;26317;44.894;20.286;2023-04-12T08:39:38;5.47;;;2.83;;
40611;SDS011;26317;44.894;20.286;2023-04-12T08:42:18;4.78;;;2.45;;
40611;SDS011;26317;44.894;20.286;2023-04-12T08:44:57;9.07;;;3.13;;
40611;SDS011;26317;44.894;20.286;2023-04-12T08:47:44;5.47;;;2.35;;
40611;SDS011;26317;44.894;20.286;2023-04-12T08:50:27;5.70;;;2.65;;
40611;SDS011;26317;44.894;20.286;2023-04-12T08:53:08;4.15;;;3.03;;
40611;SDS011;26317;44.894;20.286;2023-04-12T08:55:54;5.07;;;2.35;;
40611;SDS011;26317;44.894;20.286;2023-04-12T08:58:37;7.28;;;3.95;;
40611;SDS011;26317;44.894;20.286;2023-04-12T09:01:16;5.38;;;2.40;;
40611;SDS011;26317;44.894;20.286;2023-04-12T09:03:58;8.00;;;2.92;;
40611;SDS011;26317;44.894;20.286;2023-04-12T09:06:37;5.13;;;2.50;;
40611;SDS011;26317;44.894;20.286;2023-04-12T09:09:12;11.48;;;3.05;;
40611;SDS011;26317;44.894;20.286;2023-04-12T09:11:51;5.68;;;2.70;;
40611;SDS011;26317;44.894;20.286;2023-04-12T09:14:47;7.05;;;2.50;;
40611;SDS011;26317;44.894;20.286;2023-04-12T09:17:40;10.30;;;2.80;;
40611;SDS011;26317;44.894;20.286;2023-04-12T09:20:27;5.70;;;1.90;;
40611;SDS011;26317;44.894;20.286;2023-04-12T09:23:18;2.92;;;2.10;;
40611;SDS011;26317;44.894;20.286;2023-04-12T09:25:57;7.07;;;2.55;;
40611;SDS011;26317;44.894;20.286;2023-04-12T09:28:47;3.30;;;1.83;;
40611;SDS011;26317;44.894;20.286;2023-04-12T09:31:26;5.35;;;1.60;;
40611;SDS011;26317;44.894;20.286;2023-04-12T09:34:13;3.80;;;2.05;;
40611;SDS011;26317;44.894;20.286;2023-04-12T09:36:47;6.95;;;2.25;;
40611;SDS011;26317;44.894;20.286;2023-04-12T09:39:31;3.58;;;1.70;;
40611;SDS011;26317;44.894;20.286;2023-04-12T09:42:10;7.25;;;1.95;;
40611;SDS011;26317;44.894;20.286;2023-04-12T09:44:57;4.40;;;2.00;;
40611;SDS011;26317;44.894;20.286;2023-04-12T09:47:50;4.38;;;2.45;;
40611;SDS011;26317;44.894;20.286;2023-04-12T09:50:28;3.22;;;1.95;;
40611;SDS011;26317;44.894;20.286;2023-04-12T09:53:15;3.70;;;1.80;;
40611;SDS011;26317;44.894;20.286;2023-04-12T09:55:52;2.53;;;1.20;;
40611;SDS011;26317;44.894;20.286;2023-04-12T09:58:32;3.45;;;2.00;;
40611;SDS011;26317;44.894;20.286;2023-04-12T10:01:19;4.63;;;2.08;;
40611;SDS011;26317;44.894;20.286;2023-04-12T10:04:00;4.75;;;1.98;;
40611;SDS011;26317;44.894;20.286;2023-04-12T10:06:40;3.90;;;2.03;;
40611;SDS011;26317;44.894;20.286;2023-04-12T10:09:13;5.30;;;1.67;;
40611;SDS011;26317;44.894;20.286;2023-04-12T10:11:52;5.97;;;2.03;;
40611;SDS011;26317;44.894;20.286;2023-04-12T10:14:28;5.75;;;2.05;;
40611;SDS011;26317;44.894;20.286;2023-04-12T10:17:10;4.75;;;1.60;;
40611;SDS011;26317;44.894;20.286;2023-04-12T10:19:53;4.68;;;2.13;;
40611;SDS011;26317;44.894;20.286;2023-04-12T10:22:43;2.95;;;1.58;;
40611;SDS011;26317;44.894;20.286;2023-04-12T10:25:22;2.63;;;1.65;;
40611;SDS011;26317;44.894;20.286;2023-04-12T10:28:12;3.67;;;2.10;;
40611;SDS011;26317;44.894;20.286;2023-04-12T10:30:47;4.65;;;2.15;;
40611;SDS011;26317;44.894;20.286;2023-04-12T10:33:36;6.97;;;2.03;;
40611;SDS011;26317;44.894;20.286;2023-04-12T10:36:12;5.55;;;2.25;;
40611;SDS011;26317;44.894;20.286;2023-04-12T10:38:50;4.35;;;1.88;;
40611;SDS011;26317;44.894;20.286;2023-04-12T10:44:49;2.95;;;1.42;;
40611;SDS011;26317;44.894;20.286;2023-04-12T10:50:36;6.47;;;1.90;;
40611;SDS011;26317;44.894;20.286;2023-04-12T10:53:26;7.30;;;2.83;;
40611;SDS011;26317;44.894;20.286;2023-04-12T10:56:37;5.38;;;1.90;;
40611;SDS011;26317;44.894;20.286;2023-04-12T11:02:30;3.38;;;1.75;;
40611;SDS011;26317;44.894;20.286;2023-04-12T11:05:13;4.88;;;1.80;;
40611;SDS011;26317;44.894;20.286;2023-04-12T11:08:04;6.13;;;1.70;;
40611;SDS011;26317;44.894;20.286;2023-04-12T11:10:53;4.53;;;1.20;;
40611;SDS011;26317;44.894;20.286;2023-04-12T11:13:45;5.15;;;1.88;;
40611;SDS011;26317;44.894;20.286;2023-04-12T11:16:24;5.07;;;2.13;;
40611;SDS011;26317;44.894;20.286;2023-04-12T11:19:11;3.85;;;2.08;;
40611;SDS011;26317;44.894;20.286;2023-04-12T11:21:46;7.63;;;2.13;;
40611;SDS011;26317;44.894;20.286;2023-04-12T11:24:26;4.70;;;2.10;;
40611;SDS011;26317;44.894;20.286;2023-04-12T11:26:59;5.35;;;1.45;;
40611;SDS011;26317;44.894;20.286;2023-04-12T11:29:38;4.82;;;1.75;;
40611;SDS011;26317;44.894;20.286;2023-04-12T11:32:26;3.33;;;1.42;;
40611;SDS011;26317;44.894;20.286;2023-04-12T11:35:06;5.33;;;2.60;;
40611;SDS011;26317;44.894;20.286;2023-04-12T11:37:52;5.20;;;2.15;;
40611;SDS011;26317;44.894;20.286;2023-04-12T11:40:32;5.80;;;1.70;;
40611;SDS011;26317;44.894;20.286;2023-04-12T11:43:13;3.42;;;1.48;;
40611;SDS011;26317;44.894;20.286;2023-04-12T11:45:56;6.18;;;1.77;;
40611;SDS011;26317;44.894;20.286;2023-04-12T11:48:37;8.90;;;2.00;;
40611;SDS011;26317;44.894;20.286;2023-04-12T11:51:21;3.78;;;1.88;;
40611;SDS011;26317;44.894;20.286;2023-04-12T11:54:00;5.22;;;1.83;;
40611;SDS011;26317;44.894;20.286;2023-04-12T11:56:46;5.03;;;1.77;;
40611;SDS011;26317;44.894;20.286;2023-04-12T11:59:32;2.35;;;1.45;;
40611;SDS011;26317;44.894;20.286;2023-04-12T12:02:05;2.30;;;1.27;;
40611;SDS011;26317;44.894;20.286;2023-04-12T12:04:52;3.75;;;1.73;;
40611;SDS011;26317;44.894;20.286;2023-04-12T12:07:28;3.55;;;1.60;;
40611;SDS011;26317;44.894;20.286;2023-04-12T12:10:07;3.55;;;1.35;;
40611;SDS011;26317;44.894;20.286;2023-04-12T12:13:01;5.95;;;1.75;;
40611;SDS011;26317;44.894;20.286;2023-04-12T12:15:55;2.70;;;1.27;;
40611;SDS011;26317;44.894;20.286;2023-04-12T12:18:37;2.05;;;1.52;;
40611;SDS011;26317;44.894;20.286;2023-04-12T12:21:13;3.33;;;1.33;;
40611;SDS011;26317;44.894;20.286;2023-04-12T12:23:54;3.97;;;1.20;;
40611;SDS011;26317;44.894;20.286;2023-04-12T12:26:34;4.40;;;1.90;;
40611;SDS011;26317;44.894;20.286;2023-04-12T12:29:18;6.32;;;2.13;;
40611;SDS011;26317;44.894;20.286;2023-04-12T12:31:59;4.32;;;1.40;;
40611;SDS011;26317;44.894;20.286;2023-04-12T12:34:48;4.35;;;1.70;;
40611;SDS011;26317;44.894;20.286;2023-04-12T12:37:30;8.07;;;1.80;;
40611;SDS011;26317;44.894;20.286;2023-04-12T12:40:08;4.57;;;1.33;;
40611;SDS011;26317;44.894;20.286;2023-04-12T12:42:46;2.50;;;1.50;;
40611;SDS011;26317;44.894;20.286;2023-04-12T12:45:25;8.13;;;1.83;;
40611;SDS011;26317;44.894;20.286;2023-04-12T12:48:14;8.98;;;4.03;;
40611;SDS011;26317;44.894;20.286;2023-04-12T12:50:54;2.03;;;1.30;;
40611;SDS011;26317;44.894;20.286;2023-04-12T12:53:30;3.92;;;1.77;;
40611;SDS011;26317;44.894;20.286;2023-04-12T12:56:04;10.23;;;6.25;;
40611;SDS011;26317;44.894;20.286;2023-04-12T12:58:44;5.80;;;2.70;;
40611;SDS011;26317;44.894;20.286;2023-04-12T13:01:25;8.73;;;2.85;;
40611;SDS011;26317;44.894;20.286;2023-04-12T13:04:06;3.97;;;2.13;;
40611;SDS011;26317;44.894;20.286;2023-04-12T13:06:54;7.95;;;1.67;;
40611;SDS011;26317;44.894;20.286;2023-04-12T13:09:27;3.75;;;1.80;;
40611;SDS011;26317;44.894;20.286;2023-04-12T13:12:08;5.85;;;3.55;;
40611;SDS011;26317;44.894;20.286;2023-04-12T13:14:45;6.78;;;1.45;;
40611;SDS011;26317;44.894;20.286;2023-04-12T13:17:46;15.70;;;9.85;;
40611;SDS011;26317;44.894;20.286;2023-04-12T13:20:29;4.53;;;1.95;;
40611;SDS011;26317;44.894;20.286;2023-04-12T13:23:08;5.45;;;2.75;;
40611;SDS011;26317;44.894;20.286;2023-04-12T13:25:47;5.47;;;1.42;;
40611;SDS011;26317;44.894;20.286;2023-04-12T13:28:27;3.20;;;1.42;;
40611;SDS011;26317;44.894;20.286;2023-04-12T13:31:09;7.60;;;1.55;;
40611;SDS011;26317;44.894;20.286;2023-04-12T13:33:51;3.35;;;2.08;;
40611;SDS011;26317;44.894;20.286;2023-04-12T13:36:30;11.80;;;3.85;;
40611;SDS011;26317;44.894;20.286;2023-04-12T13:39:10;4.15;;;1.48;;
40611;SDS011;26317;44.894;20.286;2023-04-12T13:41:47;4.80;;;1.23;;
40611;SDS011;26317;44.894;20.286;2023-04-12T13:44:21;5.93;;;1.35;;
40611;SDS011;26317;44.894;20.286;2023-04-12T13:46:57;11.68;;;2.00;;
40611;SDS011;26317;44.894;20.286;2023-04-12T13:49:33;7.82;;;1.88;;
40611;SDS011;26317;44.894;20.286;2023-04-12T13:52:19;3.45;;;1.10;;
40611;SDS011;26317;44.894;20.286;2023-04-12T13:54:51;5.72;;;1.67;;
40611;SDS011;26317;44.894;20.286;2023-04-12T13:57:30;5.82;;;1.95;;
40611;SDS011;26317;44.894;20.286;2023-04-12T14:00:06;5.45;;;1.80;;
40611;SDS011;26317;44.894;20.286;2023-04-12T14:02:56;3.58;;;1.60;;
40611;SDS011;26317;44.894;20.286;2023-04-12T14:05:34;3.47;;;1.70;;
40611;SDS011;26317;44.894;20.286;2023-04-12T14:08:10;3.13;;;1.33;;
40611;SDS011;26317;44.894;20.286;2023-04-12T14:10:41;4.55;;;1.50;;
40611;SDS011;26317;44.894;20.286;2023-04-12T14:13:20;5.05;;;1.55;;
40611;SDS011;26317;44.894;20.286;2023-04-12T14:15:59;1.75;;;1.48;;
40611;SDS011;26317;44.894;20.286;2023-04-12T14:18:31;5.15;;;1.83;;
40611;SDS011;26317;44.894;20.286;2023-04-12T14:21:13;5.25;;;1.40;;
40611;SDS011;26317;44.894;20.286;2023-04-12T14:24:01;7.82;;;1.95;;
40611;SDS011;26317;44.894;20.286;2023-04-12T14:26:38;4.78;;;1.73;;
40611;SDS011;26317;44.894;20.286;2023-04-12T14:29:16;5.75;;;1.92;;
40611;SDS011;26317;44.894;20.286;2023-04-12T14:31:57;9.38;;;1.45;;
40611;SDS011;26317;44.894;20.286;2023-04-12T14:34:34;5.15;;;1.30;;
40611;SDS011;26317;44.894;20.286;2023-04-12T14:37:16;3.75;;;1.48;;
40611;SDS011;26317;44.894;20.286;2023-04-12T14:39:58;5.57;;;1.48;;
40611;SDS011;26317;44.894;20.286;2023-04-12T14:42:37;4.32;;;1.60;;
40611;SDS011;26317;44.894;20.286;2023-04-12T14:45:12;3.40;;;1.70;;
40611;SDS011;26317;44.894;20.286;2023-04-12T14:47:49;9.13;;;2.17;;
40611;SDS011;26317;44.894;20.286;2023-04-12T14:50:28;7.78;;;1.90;;
40611;SDS011;26317;44.894;20.286;2023-04-12T14:53:16;2.28;;;1.20;;
40611;SDS011;26317;44.894;20.286;2023-04-12T14:55:54;4.13;;;1.58;;
40611;SDS011;26317;44.894;20.286;2023-04-12T15:01:06;4.18;;;2.10;;
40611;SDS011;26317;44.894;20.286;2023-04-12T15:03:46;4.72;;;1.60;;
40611;SDS011;26317;44.894;20.286;2023-04-12T15:06:23;5.03;;;1.85;;
40611;SDS011;26317;44.894;20.286;2023-04-12T15:09:16;7.57;;;1.98;;
40611;SDS011;26317;44.894;20.286;2023-04-12T15:11:52;7.13;;;2.10;;
40611;SDS011;26317;44.894;20.286;2023-04-12T15:14:29;5.05;;;1.50;;
40611;SDS011;26317;44.894;20.286;2023-04-12T15:17:08;10.80;;;1.85;;
40611;SDS011;26317;44.894;20.286;2023-04-12T15:19:44;4.07;;;1.52;;
40611;SDS011;26317;44.894;20.286;2023-04-12T15:22:25;3.47;;;1.95;;
40611;SDS011;26317;44.894;20.286;2023-04-12T15:25:11;5.57;;;3.45;;
40611;SDS011;26317;44.894;20.286;2023-04-12T15:27:52;5.13;;;2.30;;
40611;SDS011;26317;44.894;20.286;2023-04-12T15:30:28;2.70;;;1.48;;
40611;SDS011;26317;44.894;20.286;2023-04-12T15:33:08;5.80;;;3.42;;
40611;SDS011;26317;44.894;20.286;2023-04-12T15:35:47;3.67;;;1.63;;
40611;SDS011;26317;44.894;20.286;2023-04-12T15:38:29;9.82;;;2.05;;
40611;SDS011;26317;44.894;20.286;2023-04-12T15:41:08;7.47;;;2.92;;
40611;SDS011;26317;44.894;20.286;2023-04-12T15:43:42;6.22;;;2.33;;
40611;SDS011;26317;44.894;20.286;2023-04-12T15:46:16;7.18;;;2.20;;
40611;SDS011;26317;44.894;20.286;2023-04-12T15:48:52;9.60;;;4.63;;
40611;SDS011;26317;44.894;20.286;2023-04-12T15:51:28;18.08;;;4.60;;
40611;SDS011;26317;44.894;20.286;2023-04-12T15:54:03;5.95;;;1.80;;
40611;SDS011;26317;44.894;20.286;2023-04-12T15:56:44;3.15;;;1.50;;
40611;SDS011;26317;44.894;20.286;2023-04-12T15:59:23;5.53;;;1.80;;
40611;SDS011;26317;44.894;20.286;2023-04-12T16:01:58;6.43;;;2.67;;
40611;SDS011;26317;44.894;20.286;2023-04-12T16:04:33;6.53;;;3.22;;
40611;SDS011;26317;44.894;20.286;2023-04-12T16:07:09;6.55;;;2.63;;
40611;SDS011;26317;44.894;20.286;2023-04-12T16:09:47;4.72;;;2.80;;
40611;SDS011;26317;44.894;20.286;2023-04-12T16:12:24;7.95;;;3.33;;
40611;SDS011;26317;44.894;20.286;2023-04-12T16:15:02;7.70;;;2.83;;
40611;SDS011;26317;44.894;20.286;2023-04-12T16:17:43;25.10;;;14.73;;
40611;SDS011;26317;44.894;20.286;2023-04-12T16:20:24;13.73;;;7.75;;
40611;SDS011;26317;44.894;20.286;2023-04-12T16:23:02;12.50;;;6.43;;